Time;durP1;ratioP1;P1;durP2;ratioP2;P2;SDS_P1;SDS_P2;PMS_P1;PMS_P2;Temp;Humidity;BMP_temperature;BMP_pressure;BME280_temperature;BME280_humidity;BME280_pressure;Samples;Min_cycle;Max_cycle;Signal;HPM_P1;HPM_P2
2023/06/16 00:01:59;;;;;;;4.85;3.40;;;;;;;;;;5008415;28;20099;-53
2023/06/16 00:04:27;;;;;;;5.80;3.25;;;;;;;;;;5008363;28;20022;-56
2023/06/16 00:06:53;;;;;;;6.75;3.45;;;;;;;;;;5002103;28;20033;-49
2023/06/16 00:09:22;;;;;;;8.40;3.60;;;;;;;;;;5012044;28;20124;-49
2023/06/16 00:11:47;;;;;;;5.72;3.70;;;;;;;;;;4999641;28;20069;-51
2023/06/16 00:14:13;;;;;;;4.80;3.20;;;;;;;;;;4996500;28;20058;-51
2023/06/16 00:16:39;;;;;;;5.60;3.33;;;;;;;;;;5004876;28;20041;-50
2023/06/16 00:19:04;;;;;;;6.70;3.63;;;;;;;;;;5018315;28;20033;-52
2023/06/16 00:21:38;;;;;;;6.13;3.67;;;;;;;;;;4995928;28;20034;-52
2023/06/16 00:24:07;;;;;;;7.20;3.90;;;;;;;;;;5004547;28;20035;-51
2023/06/16 00:26:33;;;;;;;6.63;3.55;;;;;;;;;;4991489;28;20069;-48
2023/06/16 00:28:58;;;;;;;6.63;3.42;;;;;;;;;;5002034;28;20440;-53
2023/06/16 00:31:25;;;;;;;7.65;3.63;;;;;;;;;;5006464;28;20034;-55
2023/06/16 00:33:54;;;;;;;7.43;3.83;;;;;;;;;;5002470;28;20081;-53
2023/06/16 00:36:19;;;;;;;4.72;3.47;;;;;;;;;;4992859;28;20463;-54
2023/06/16 00:38:45;;;;;;;6.13;3.50;;;;;;;;;;4991380;28;20041;-53
2023/06/16 00:41:11;;;;;;;8.00;3.58;;;;;;;;;;4992610;28;20074;-50
2023/06/16 00:43:36;;;;;;;5.82;3.50;;;;;;;;;;4991075;28;20030;-54
2023/06/16 00:46:01;;;;;;;5.95;3.90;;;;;;;;;;4993307;28;20038;-55
2023/06/16 00:48:27;;;;;;;5.85;3.70;;;;;;;;;;4992262;28;20038;-55
2023/06/16 00:50:54;;;;;;;4.88;3.40;;;;;;;;;;5005344;28;20442;-51
2023/06/16 00:53:20;;;;;;;4.97;3.70;;;;;;;;;;5008791;28;20045;-53
2023/06/16 00:55:46;;;;;;;5.72;3.80;;;;;;;;;;4998200;28;20037;-53
2023/06/16 00:58:11;;;;;;;5.93;3.70;;;;;;;;;;4992656;28;20041;-52
2023/06/16 01:00:37;;;;;;;5.85;3.85;;;;;;;;;;5009720;28;20040;-52
2023/06/16 01:03:04;;;;;;;5.82;3.80;;;;;;;;;;5008417;28;20065;-53
2023/06/16 01:05:32;;;;;;;6.10;3.90;;;;;;;;;;4992079;28;20038;-54
2023/06/16 01:08:16;;;;;;;5.05;3.70;;;;;;;;;;4997139;28;20040;-49
2023/06/16 01:10:45;;;;;;;8.38;3.85;;;;;;;;;;5008215;28;20038;-48
2023/06/16 01:13:28;;;;;;;5.95;3.65;;;;;;;;;;5009490;28;20040;-50
2023/06/16 01:15:56;;;;;;;5.35;3.90;;;;;;;;;;4999630;28;20395;-50
2023/06/16 01:18:25;;;;;;;6.55;4.00;;;;;;;;;;5005647;28;20041;-52
2023/06/16 01:21:09;;;;;;;7.20;3.90;;;;;;;;;;5004935;28;20112;-49
2023/06/16 01:24:01;;;;;;;6.05;3.67;;;;;;;;;;4998392;28;20041;-50
2023/06/16 01:26:29;;;;;;;7.43;4.00;;;;;;;;;;4992103;28;20030;-56
2023/06/16 01:28:58;;;;;;;5.10;3.55;;;;;;;;;;5013171;28;20029;-50
2023/06/16 01:31:25;;;;;;;8.05;3.72;;;;;;;;;;5007595;28;20061;-55
2023/06/16 01:33:51;;;;;;;5.15;3.70;;;;;;;;;;5010220;28;20513;-50
2023/06/16 01:36:17;;;;;;;9.35;4.00;;;;;;;;;;5003079;28;20389;-50
2023/06/16 01:38:43;;;;;;;8.45;3.90;;;;;;;;;;4998824;28;20038;-50
2023/06/16 01:41:10;;;;;;;5.70;3.70;;;;;;;;;;4997706;28;20362;-52
2023/06/16 01:43:36;;;;;;;6.45;4.00;;;;;;;;;;4996665;28;20038;-53
2023/06/16 01:46:02;;;;;;;6.78;3.90;;;;;;;;;;5009396;28;20038;-52
2023/06/16 01:48:28;;;;;;;6.63;4.07;;;;;;;;;;5010640;28;20029;-51
2023/06/16 01:50:53;;;;;;;6.03;3.75;;;;;;;;;;5008825;28;20116;-49
2023/06/16 01:53:19;;;;;;;5.65;3.80;;;;;;;;;;4991249;28;20391;-54
2023/06/16 01:55:48;;;;;;;7.68;3.67;;;;;;;;;;4991579;28;20116;-53
2023/06/16 01:58:15;;;;;;;5.55;3.95;;;;;;;;;;4992182;28;20034;-51
2023/06/16 02:00:47;;;;;;;6.82;3.90;;;;;;;;;;5006183;28;20372;-53
2023/06/16 02:03:18;;;;;;;5.93;3.80;;;;;;;;;;5004014;28;20145;-49
2023/06/16 02:05:46;;;;;;;7.28;3.75;;;;;;;;;;4996199;28;20026;-53
2023/06/16 02:08:14;;;;;;;5.25;3.97;;;;;;;;;;5010519;28;20144;-51
2023/06/16 02:10:40;;;;;;;5.60;3.90;;;;;;;;;;5008740;28;20443;-49
2023/06/16 02:13:05;;;;;;;5.85;4.10;;;;;;;;;;4998773;28;20043;-51
2023/06/16 02:15:32;;;;;;;6.55;3.95;;;;;;;;;;4995519;28;20046;-54
2023/06/16 02:17:58;;;;;;;7.57;3.97;;;;;;;;;;5013888;28;20093;-53
2023/06/16 02:20:26;;;;;;;8.05;3.90;;;;;;;;;;5009309;28;20030;-52
2023/06/16 02:22:52;;;;;;;5.60;4.03;;;;;;;;;;4997419;28;20034;-47
2023/06/16 02:25:18;;;;;;;6.13;3.90;;;;;;;;;;4990772;28;20042;-50
2023/06/16 02:27:44;;;;;;;6.55;4.40;;;;;;;;;;4996868;28;20029;-49
2023/06/16 02:30:11;;;;;;;6.72;3.90;;;;;;;;;;4994542;28;20042;-53
2023/06/16 02:32:37;;;;;;;7.93;3.80;;;;;;;;;;4999730;28;20072;-54
2023/06/16 02:35:04;;;;;;;6.88;4.07;;;;;;;;;;4997376;28;20121;-54
2023/06/16 02:37:29;;;;;;;5.22;3.88;;;;;;;;;;5022662;28;20061;-51
2023/06/16 02:39:55;;;;;;;6.35;3.80;;;;;;;;;;5001342;28;20536;-55
2023/06/16 02:42:20;;;;;;;6.63;4.00;;;;;;;;;;5010030;28;20038;-51
2023/06/16 02:44:46;;;;;;;6.40;4.05;;;;;;;;;;5011573;28;21374;-52
2023/06/16 02:47:11;;;;;;;6.35;4.00;;;;;;;;;;5008947;28;20048;-52
2023/06/16 02:49:42;;;;;;;6.93;3.95;;;;;;;;;;4999553;28;20061;-52
2023/06/16 02:52:11;;;;;;;6.03;4.05;;;;;;;;;;5005820;28;20030;-54
2023/06/16 02:54:37;;;;;;;6.53;3.90;;;;;;;;;;5018385;28;20057;-54
2023/06/16 02:57:03;;;;;;;6.85;4.30;;;;;;;;;;5012528;28;20466;-50
2023/06/16 02:59:28;;;;;;;6.85;4.30;;;;;;;;;;5011654;28;20072;-54
2023/06/16 03:01:54;;;;;;;5.10;3.80;;;;;;;;;;5002678;28;20105;-51
2023/06/16 03:04:19;;;;;;;6.88;4.15;;;;;;;;;;5004987;28;20033;-55
2023/06/16 03:06:46;;;;;;;6.07;4.10;;;;;;;;;;5019703;28;20485;-52
2023/06/16 03:09:12;;;;;;;6.80;4.30;;;;;;;;;;5012794;28;20041;-50
2023/06/16 03:11:37;;;;;;;7.22;4.35;;;;;;;;;;5007892;28;20112;-55
2023/06/16 03:14:03;;;;;;;7.10;4.20;;;;;;;;;;4997425;28;20030;-52
2023/06/16 03:16:29;;;;;;;8.48;4.68;;;;;;;;;;5009602;28;20041;-51
2023/06/16 03:18:55;;;;;;;7.32;4.22;;;;;;;;;;5011731;28;20061;-50
2023/06/16 03:21:21;;;;;;;7.13;4.20;;;;;;;;;;5011819;28;20382;-48
2023/06/16 03:23:47;;;;;;;6.43;4.05;;;;;;;;;;5010795;28;20127;-52
2023/06/16 03:26:13;;;;;;;5.93;4.22;;;;;;;;;;5013415;28;20030;-54
2023/06/16 03:28:39;;;;;;;6.50;4.10;;;;;;;;;;5013152;28;20120;-55
2023/06/16 03:31:05;;;;;;;6.40;4.60;;;;;;;;;;5023226;28;20108;-54
2023/06/16 03:33:31;;;;;;;7.53;4.18;;;;;;;;;;5001270;28;20156;-53
2023/06/16 03:35:57;;;;;;;7.72;4.60;;;;;;;;;;4995902;28;20060;-53
2023/06/16 03:38:22;;;;;;;6.45;4.07;;;;;;;;;;5005985;28;20457;-51
2023/06/16 03:40:47;;;;;;;8.02;4.35;;;;;;;;;;5017956;28;20050;-52
2023/06/16 03:43:13;;;;;;;7.28;4.47;;;;;;;;;;4993695;28;20041;-51
2023/06/16 03:45:39;;;;;;;6.78;3.70;;;;;;;;;;4991862;28;20046;-54
2023/06/16 03:48:05;;;;;;;7.80;4.28;;;;;;;;;;5006722;28;20038;-52
2023/06/16 03:50:30;;;;;;;6.68;3.97;;;;;;;;;;5017961;28;20447;-53
2023/06/16 03:52:56;;;;;;;6.13;4.07;;;;;;;;;;5007884;28;20033;-52
2023/06/16 03:55:21;;;;;;;5.85;4.20;;;;;;;;;;5012520;28;20397;-52
2023/06/16 03:57:47;;;;;;;8.07;4.30;;;;;;;;;;5011853;28;20042;-50
2023/06/16 04:00:12;;;;;;;6.55;4.15;;;;;;;;;;5010111;28;20430;-51
2023/06/16 04:02:38;;;;;;;5.68;4.20;;;;;;;;;;5017654;28;21690;-55
2023/06/16 04:05:03;;;;;;;6.32;4.32;;;;;;;;;;5021049;28;20030;-49
2023/06/16 04:07:30;;;;;;;5.85;4.00;;;;;;;;;;4993529;28;20030;-50
2023/06/16 04:09:55;;;;;;;6.30;4.20;;;;;;;;;;5007957;28;20022;-51
2023/06/16 04:12:21;;;;;;;8.05;4.28;;;;;;;;;;5031685;28;20029;-53
2023/06/16 04:14:46;;;;;;;7.68;4.65;;;;;;;;;;5011976;28;20042;-53
2023/06/16 04:17:12;;;;;;;7.03;4.43;;;;;;;;;;5008496;28;20054;-53
2023/06/16 04:19:37;;;;;;;6.93;4.60;;;;;;;;;;4993374;28;20038;-56
2023/06/16 04:22:03;;;;;;;8.13;4.00;;;;;;;;;;4994576;28;20042;-53
2023/06/16 04:24:28;;;;;;;9.55;4.72;;;;;;;;;;5009026;28;20390;-56
2023/06/16 04:26:58;;;;;;;6.13;4.45;;;;;;;;;;5005065;28;20395;-53
2023/06/16 04:29:25;;;;;;;7.88;4.10;;;;;;;;;;4993297;28;20092;-55
2023/06/16 04:31:51;;;;;;;7.95;4.00;;;;;;;;;;5008940;28;20033;-51
2023/06/16 04:34:18;;;;;;;14.45;5.50;;;;;;;;;;5000570;28;20149;-51
2023/06/16 04:36:44;;;;;;;8.55;4.75;;;;;;;;;;5010809;28;20036;-48
2023/06/16 04:39:14;;;;;;;10.82;4.47;;;;;;;;;;5005322;28;20451;-48
2023/06/16 04:41:39;;;;;;;7.47;4.93;;;;;;;;;;5009371;28;20475;-54
2023/06/16 04:44:06;;;;;;;7.60;4.30;;;;;;;;;;5000254;28;20129;-52
2023/06/16 04:46:32;;;;;;;5.93;4.15;;;;;;;;;;5001611;28;20045;-49
2023/06/16 04:48:57;;;;;;;7.43;4.32;;;;;;;;;;5006370;28;20026;-53
2023/06/16 04:51:23;;;;;;;7.78;4.75;;;;;;;;;;4992807;28;20042;-48
2023/06/16 04:53:48;;;;;;;7.40;4.72;;;;;;;;;;5003922;28;20546;-50
2023/06/16 04:56:14;;;;;;;8.40;4.68;;;;;;;;;;5008415;28;20034;-52
2023/06/16 04:58:40;;;;;;;5.72;4.50;;;;;;;;;;4993348;28;20032;-54
2023/06/16 05:01:06;;;;;;;7.82;4.68;;;;;;;;;;5008256;28;20034;-53
2023/06/16 05:03:31;;;;;;;6.47;4.68;;;;;;;;;;5009223;28;20037;-51
2023/06/16 05:05:56;;;;;;;6.15;4.70;;;;;;;;;;5008560;28;20036;-52
2023/06/16 05:08:22;;;;;;;9.02;4.90;;;;;;;;;;5007788;28;20084;-48
2023/06/16 05:10:47;;;;;;;8.25;4.80;;;;;;;;;;4994023;28;20077;-47
2023/06/16 05:13:13;;;;;;;8.60;4.57;;;;;;;;;;4992660;28;20033;-50
2023/06/16 05:15:38;;;;;;;9.20;4.50;;;;;;;;;;4993131;28;20026;-51
2023/06/16 05:18:03;;;;;;;6.72;4.88;;;;;;;;;;5008831;28;20637;-51
2023/06/16 05:20:31;;;;;;;8.88;4.70;;;;;;;;;;5029820;28;20031;-48
2023/06/16 05:22:57;;;;;;;7.72;4.72;;;;;;;;;;5011553;28;20034;-49
2023/06/16 05:25:23;;;;;;;8.18;4.97;;;;;;;;;;5010932;28;20052;-49
2023/06/16 05:27:48;;;;;;;6.78;4.60;;;;;;;;;;5020358;28;20371;-54
2023/06/16 05:30:13;;;;;;;7.53;4.45;;;;;;;;;;5013899;28;20029;-52
2023/06/16 05:32:39;;;;;;;7.97;4.50;;;;;;;;;;5016865;28;20045;-56
2023/06/16 05:35:05;;;;;;;6.95;4.53;;;;;;;;;;4999399;28;20038;-55
2023/06/16 05:37:30;;;;;;;7.15;4.45;;;;;;;;;;5012746;28;20056;-53
2023/06/16 05:39:56;;;;;;;7.35;4.65;;;;;;;;;;5027155;28;20570;-55
2023/06/16 05:42:21;;;;;;;7.15;4.53;;;;;;;;;;5020404;28;20033;-55
2023/06/16 05:44:47;;;;;;;6.63;4.50;;;;;;;;;;5020631;28;20066;-57
2023/06/16 05:47:13;;;;;;;9.27;4.90;;;;;;;;;;4998694;28;20038;-56
2023/06/16 05:49:38;;;;;;;11.40;4.85;;;;;;;;;;5012231;28;20064;-56
2023/06/16 05:52:05;;;;;;;8.48;4.32;;;;;;;;;;5013333;28;20056;-56
2023/06/16 05:54:32;;;;;;;8.75;4.50;;;;;;;;;;5030091;28;20071;-53
2023/06/16 05:56:58;;;;;;;8.52;4.70;;;;;;;;;;5009730;28;20030;-55
2023/06/16 05:59:25;;;;;;;7.90;4.75;;;;;;;;;;5005994;28;20498;-53
2023/06/16 06:01:51;;;;;;;11.20;4.90;;;;;;;;;;5005484;28;20085;-56
2023/06/16 06:04:20;;;;;;;6.45;4.28;;;;;;;;;;5014791;28;20489;-52
2023/06/16 06:06:45;;;;;;;7.30;4.15;;;;;;;;;;5006603;28;20026;-55
2023/06/16 06:09:11;;;;;;;7.57;4.35;;;;;;;;;;4998362;28;20025;-50
2023/06/16 06:11:36;;;;;;;7.30;4.25;;;;;;;;;;5014226;28;20037;-49
2023/06/16 06:14:02;;;;;;;6.28;4.38;;;;;;;;;;5010745;28;20072;-55
2023/06/16 06:16:27;;;;;;;6.53;4.20;;;;;;;;;;5011876;28;20541;-55
2023/06/16 06:18:52;;;;;;;9.05;4.50;;;;;;;;;;5010477;28;20034;-52
2023/06/16 06:21:18;;;;;;;9.93;4.85;;;;;;;;;;5010852;28;20029;-54
2023/06/16 06:23:43;;;;;;;8.57;4.35;;;;;;;;;;5014115;28;20026;-57
2023/06/16 06:26:09;;;;;;;7.97;4.80;;;;;;;;;;5011147;28;20029;-56
2023/06/16 06:28:34;;;;;;;12.15;4.53;;;;;;;;;;5014711;28;20030;-54
2023/06/16 06:31:00;;;;;;;7.25;4.35;;;;;;;;;;5008152;28;20137;-53
2023/06/16 06:33:25;;;;;;;7.25;4.50;;;;;;;;;;5011244;28;20033;-54
2023/06/16 06:35:51;;;;;;;6.07;4.20;;;;;;;;;;5010304;28;20038;-51
2023/06/16 06:38:17;;;;;;;6.45;4.60;;;;;;;;;;5005393;28;20065;-54
2023/06/16 06:40:42;;;;;;;5.63;4.15;;;;;;;;;;5012108;28;20108;-55
2023/06/16 06:43:07;;;;;;;5.82;4.10;;;;;;;;;;4991846;28;20467;-53
2023/06/16 06:45:33;;;;;;;7.00;4.10;;;;;;;;;;4999343;28;20029;-52
2023/06/16 06:47:58;;;;;;;5.97;4.35;;;;;;;;;;5011308;28;20036;-50
2023/06/16 06:50:23;;;;;;;9.10;4.45;;;;;;;;;;5011273;28;20041;-51
2023/06/16 06:52:49;;;;;;;8.65;4.47;;;;;;;;;;5015926;28;20048;-48
2023/06/16 06:55:15;;;;;;;8.45;4.45;;;;;;;;;;4999993;28;20421;-53
2023/06/16 06:57:42;;;;;;;7.32;4.10;;;;;;;;;;5011139;28;20034;-53
2023/06/16 07:00:08;;;;;;;8.18;4.63;;;;;;;;;;4992940;28;20092;-53
2023/06/16 07:02:35;;;;;;;7.75;4.30;;;;;;;;;;5014410;28;20033;-54
2023/06/16 07:05:00;;;;;;;8.25;5.65;;;;;;;;;;5000100;28;20395;-54
2023/06/16 07:07:26;;;;;;;7.15;4.75;;;;;;;;;;5024332;28;20026;-54
2023/06/16 07:09:51;;;;;;;6.10;4.50;;;;;;;;;;5018600;28;20371;-60
2023/06/16 07:12:17;;;;;;;6.60;4.10;;;;;;;;;;5007797;28;20034;-57
2023/06/16 07:14:45;;;;;;;6.43;4.47;;;;;;;;;;5017703;28;20021;-53
2023/06/16 07:17:11;;;;;;;7.75;4.47;;;;;;;;;;5008321;28;20042;-53
2023/06/16 07:19:36;;;;;;;6.40;4.20;;;;;;;;;;5011088;28;20089;-56
2023/06/16 07:22:02;;;;;;;7.18;3.88;;;;;;;;;;5013632;28;20022;-53
2023/06/16 07:24:27;;;;;;;6.70;3.60;;;;;;;;;;5023808;28;20073;-52
2023/06/16 07:26:52;;;;;;;8.95;3.85;;;;;;;;;;5022184;28;20030;-54
2023/06/16 07:29:18;;;;;;;7.78;3.88;;;;;;;;;;5025509;28;20049;-55
2023/06/16 07:31:43;;;;;;;7.47;3.58;;;;;;;;;;5022006;28;20037;-53
2023/06/16 07:34:08;;;;;;;5.78;3.45;;;;;;;;;;4994520;28;20879;-51
2023/06/16 07:36:34;;;;;;;6.20;3.70;;;;;;;;;;5003892;28;20538;-53
2023/06/16 07:39:00;;;;;;;6.72;3.92;;;;;;;;;;5017365;28;20037;-51
2023/06/16 07:41:25;;;;;;;4.82;3.45;;;;;;;;;;5023959;28;20227;-48
2023/06/16 07:43:51;;;;;;;5.65;3.50;;;;;;;;;;5031962;28;20113;-54
2023/06/16 07:46:17;;;;;;;5.60;3.80;;;;;;;;;;5006344;28;20064;-52
2023/06/16 07:48:43;;;;;;;8.85;3.72;;;;;;;;;;4996561;28;20042;-52
2023/06/16 07:51:08;;;;;;;6.03;3.50;;;;;;;;;;5004019;28;20029;-54
2023/06/16 07:53:34;;;;;;;4.80;3.58;;;;;;;;;;5014119;28;20550;-55
2023/06/16 07:55:59;;;;;;;5.20;3.47;;;;;;;;;;5012701;28;20298;-54
2023/06/16 07:58:25;;;;;;;5.80;3.55;;;;;;;;;;5013591;28;20029;-56
2023/06/16 08:00:51;;;;;;;6.75;3.88;;;;;;;;;;5022195;28;20028;-57
2023/06/16 08:03:21;;;;;;;5.28;3.78;;;;;;;;;;5013465;28;20033;-54
2023/06/16 08:05:46;;;;;;;6.15;3.60;;;;;;;;;;5010712;28;20040;-54
2023/06/16 08:08:11;;;;;;;5.72;3.65;;;;;;;;;;4994990;28;20030;-52
2023/06/16 08:10:37;;;;;;;6.97;3.90;;;;;;;;;;4999371;28;20041;-54
2023/06/16 08:13:02;;;;;;;6.00;3.60;;;;;;;;;;5030945;28;20446;-54
2023/06/16 08:15:28;;;;;;;8.05;3.60;;;;;;;;;;5016853;28;20037;-55
2023/06/16 08:17:53;;;;;;;6.78;3.70;;;;;;;;;;5020930;28;20401;-52
2023/06/16 08:20:18;;;;;;;4.55;3.30;;;;;;;;;;5032017;28;20037;-56
2023/06/16 08:22:44;;;;;;;5.90;3.45;;;;;;;;;;5002511;28;20057;-51
2023/06/16 08:25:09;;;;;;;6.50;3.80;;;;;;;;;;4993563;28;20109;-52
2023/06/16 08:27:35;;;;;;;5.50;3.63;;;;;;;;;;5008715;28;20038;-52
2023/06/16 08:30:01;;;;;;;4.30;3.60;;;;;;;;;;5012536;28;20382;-56
2023/06/16 08:32:27;;;;;;;4.43;3.33;;;;;;;;;;5012705;28;20036;-52
2023/06/16 08:34:52;;;;;;;5.55;3.60;;;;;;;;;;5031705;28;20026;-54
2023/06/16 08:37:18;;;;;;;6.13;3.45;;;;;;;;;;5011608;28;20041;-53
2023/06/16 08:39:43;;;;;;;4.55;3.45;;;;;;;;;;4994792;28;20057;-53
2023/06/16 08:42:12;;;;;;;5.43;3.60;;;;;;;;;;5011298;28;20121;-52
2023/06/16 08:44:39;;;;;;;5.60;3.58;;;;;;;;;;5010642;28;20037;-50
2023/06/16 08:47:05;;;;;;;6.22;3.75;;;;;;;;;;5021228;28;20029;-54
2023/06/16 08:49:31;;;;;;;5.20;3.30;;;;;;;;;;5013882;28;20087;-52
2023/06/16 08:52:01;;;;;;;4.63;3.45;;;;;;;;;;5011413;28;20038;-55
2023/06/16 08:54:31;;;;;;;4.10;3.30;;;;;;;;;;5011187;28;20037;-54
2023/06/16 08:57:01;;;;;;;6.15;3.30;;;;;;;;;;5010497;28;20036;-54
2023/06/16 08:59:30;;;;;;;5.00;3.33;;;;;;;;;;4992997;28;20033;-53
2023/06/16 09:01:56;;;;;;;5.18;3.30;;;;;;;;;;5004449;28;20041;-51
2023/06/16 09:04:22;;;;;;;5.50;3.42;;;;;;;;;;5031813;28;20030;-55
2023/06/16 09:06:48;;;;;;;4.57;3.40;;;;;;;;;;5024553;28;20038;-49
2023/06/16 09:09:14;;;;;;;6.80;3.50;;;;;;;;;;4993176;28;20125;-51
2023/06/16 09:11:41;;;;;;;7.80;3.33;;;;;;;;;;4998849;28;20032;-55
2023/06/16 09:14:14;;;;;;;5.82;3.40;;;;;;;;;;5009181;28;20030;-56
2023/06/16 09:16:40;;;;;;;6.60;3.50;;;;;;;;;;4997021;28;20036;-55
2023/06/16 09:19:09;;;;;;;6.85;3.50;;;;;;;;;;5019781;28;20033;-48
2023/06/16 09:21:35;;;;;;;5.75;3.30;;;;;;;;;;5019820;28;20516;-56
2023/06/16 09:24:01;;;;;;;6.90;3.70;;;;;;;;;;5024692;28;20042;-55
2023/06/16 09:26:35;;;;;;;6.07;3.67;;;;;;;;;;5011534;28;20040;-56
2023/06/16 09:29:02;;;;;;;7.45;3.67;;;;;;;;;;5010946;28;20092;-54
2023/06/16 09:31:28;;;;;;;6.43;3.47;;;;;;;;;;5009410;28;20048;-52
2023/06/16 09:34:03;;;;;;;4.47;3.50;;;;;;;;;;4991513;28;20062;-56
2023/06/16 09:36:29;;;;;;;5.80;3.47;;;;;;;;;;4995854;28;20057;-55
2023/06/16 09:38:54;;;;;;;6.82;3.42;;;;;;;;;;4991401;28;20483;-57
2023/06/16 09:41:20;;;;;;;6.28;3.63;;;;;;;;;;5007908;28;20050;-54
2023/06/16 09:43:46;;;;;;;6.80;3.75;;;;;;;;;;5014571;28;20068;-53
2023/06/16 09:46:13;;;;;;;6.20;3.40;;;;;;;;;;5030477;28;20034;-56
2023/06/16 09:48:49;;;;;;;7.95;3.63;;;;;;;;;;5004352;28;20035;-55
2023/06/16 09:51:20;;;;;;;5.38;3.50;;;;;;;;;;4991191;28;20035;-56
2023/06/16 09:53:48;;;;;;;5.43;3.63;;;;;;;;;;5015886;28;20113;-56
2023/06/16 09:56:15;;;;;;;6.07;3.70;;;;;;;;;;4990912;28;20138;-58
2023/06/16 09:58:41;;;;;;;4.68;3.45;;;;;;;;;;5010470;28;20470;-54
2023/06/16 10:01:08;;;;;;;7.65;3.50;;;;;;;;;;5012547;28;20034;-52
2023/06/16 10:03:41;;;;;;;5.13;3.63;;;;;;;;;;5012509;28;20038;-54
2023/06/16 10:06:15;;;;;;;5.13;3.50;;;;;;;;;;5021031;28;20033;-53
2023/06/16 10:08:42;;;;;;;4.95;3.47;;;;;;;;;;5011917;28;20419;-59
2023/06/16 10:11:10;;;;;;;5.10;3.53;;;;;;;;;;5014999;28;20099;-56
2023/06/16 10:13:38;;;;;;;5.57;3.53;;;;;;;;;;5011237;28;20056;-52
2023/06/16 10:16:06;;;;;;;7.80;3.72;;;;;;;;;;5008801;28;20095;-58
2023/06/16 10:18:33;;;;;;;4.88;3.45;;;;;;;;;;4996052;28;20065;-53
2023/06/16 10:20:59;;;;;;;5.28;3.45;;;;;;;;;;4994518;28;20045;-53
2023/06/16 10:23:25;;;;;;;5.28;3.58;;;;;;;;;;5017394;28;20033;-60
2023/06/16 10:25:50;;;;;;;4.97;3.60;;;;;;;;;;5013800;28;20029;-49
2023/06/16 10:28:19;;;;;;;5.32;3.60;;;;;;;;;;5011129;28;20108;-54
2023/06/16 10:30:45;;;;;;;6.10;3.42;;;;;;;;;;5011384;28;20540;-56
2023/06/16 10:33:25;;;;;;;6.80;3.72;;;;;;;;;;5010208;28;20070;-56
2023/06/16 10:35:51;;;;;;;;;;;;;;;;;;5024142;28;20037;-56
2023/06/16 10:38:17;;;;;;;4.72;3.58;;;;;;;;;;5015405;28;19914;-52
2023/06/16 10:40:44;;;;;;;4.40;3.60;;;;;;;;;;4996463;28;20053;-57
2023/06/16 10:43:23;;;;;;;5.75;3.85;;;;;;;;;;5009704;28;20045;-55
2023/06/16 10:45:48;;;;;;;4.65;3.58;;;;;;;;;;5011896;28;20034;-57
2023/06/16 10:48:13;;;;;;;4.65;3.58;;;;;;;;;;5013095;28;20045;-56
2023/06/16 10:50:39;;;;;;;4.95;3.60;;;;;;;;;;5011292;28;20479;-52
2023/06/16 10:53:37;;;;;;;6.38;3.80;;;;;;;;;;5009014;28;20038;-56
2023/06/16 10:56:06;;;;;;;9.18;3.70;;;;;;;;;;5021340;28;20042;-56
2023/06/16 10:58:32;;;;;;;5.43;3.67;;;;;;;;;;5009406;28;20034;-54
2023/06/16 11:01:22;;;;;;;8.25;3.67;;;;;;;;;;4994907;28;20065;-57
2023/06/16 11:03:58;;;;;;;6.82;3.75;;;;;;;;;;5012592;28;20501;-55
2023/06/16 11:06:23;;;;;;;6.78;3.60;;;;;;;;;;5010753;28;20050;-59
2023/06/16 11:08:53;;;;;;;13.70;3.70;;;;;;;;;;5026533;28;20040;-55
2023/06/16 11:11:19;;;;;;;6.67;3.60;;;;;;;;;;5019146;28;20152;-55
2023/06/16 11:13:46;;;;;;;6.20;3.60;;;;;;;;;;5011308;28;20364;-56
2023/06/16 11:16:12;;;;;;;5.97;3.80;;;;;;;;;;5000185;28;20381;-52
2023/06/16 11:18:37;;;;;;;8.32;3.40;;;;;;;;;;5014307;28;20117;-56
2023/06/16 11:21:06;;;;;;;6.35;3.55;;;;;;;;;;5015135;28;20116;-54
2023/06/16 11:23:32;;;;;;;5.90;3.75;;;;;;;;;;5018931;28;20136;-56
2023/06/16 11:26:03;;;;;;;6.32;3.63;;;;;;;;;;5014040;28;20033;-58
2023/06/16 11:28:29;;;;;;;5.55;3.70;;;;;;;;;;5008096;28;20038;-54
2023/06/16 11:30:54;;;;;;;5.68;3.72;;;;;;;;;;5005557;28;20034;-60
2023/06/16 11:33:22;;;;;;;6.40;3.83;;;;;;;;;;5010619;28;20041;-57
2023/06/16 11:35:48;;;;;;;5.05;3.63;;;;;;;;;;5034049;28;20033;-56
2023/06/16 11:38:22;;;;;;;6.70;3.75;;;;;;;;;;5021723;28;20051;-56
2023/06/16 11:40:48;;;;;;;4.60;3.63;;;;;;;;;;5012143;28;20514;-57
2023/06/16 11:43:13;;;;;;;7.47;4.00;;;;;;;;;;5022711;28;20048;-57
2023/06/16 11:45:39;;;;;;;5.40;3.38;;;;;;;;;;5022402;28;20037;-57
2023/06/16 11:48:07;;;;;;;5.05;3.67;;;;;;;;;;5020280;28;20030;-56
2023/06/16 11:50:33;;;;;;;4.90;3.33;;;;;;;;;;5013994;28;20030;-53
2023/06/16 11:52:59;;;;;;;5.95;3.30;;;;;;;;;;5012006;28;20057;-57
2023/06/16 11:55:24;;;;;;;7.85;3.72;;;;;;;;;;5013161;28;20084;-56
2023/06/16 11:57:50;;;;;;;6.15;3.50;;;;;;;;;;5014704;28;20107;-56
2023/06/16 12:00:17;;;;;;;5.85;3.45;;;;;;;;;;5025729;28;20033;-57
2023/06/16 12:02:47;;;;;;;5.55;3.53;;;;;;;;;;5020465;28;20034;-57
2023/06/16 12:05:27;;;;;;;6.43;3.60;;;;;;;;;;5018831;28;20474;-55
2023/06/16 12:07:52;;;;;;;3.97;3.17;;;;;;;;;;5026944;28;20066;-55
2023/06/16 12:10:18;;;;;;;4.38;3.20;;;;;;;;;;5021822;28;20134;-58
2023/06/16 12:12:44;;;;;;;6.28;3.42;;;;;;;;;;5013803;28;20504;-57
2023/06/16 12:15:15;;;;;;;7.13;3.60;;;;;;;;;;5008507;28;20042;-55
2023/06/16 12:17:40;;;;;;;5.25;3.45;;;;;;;;;;5012498;28;20057;-55
2023/06/16 12:20:09;;;;;;;5.28;3.70;;;;;;;;;;5012806;28;20107;-55
2023/06/16 12:22:38;;;;;;;6.97;3.63;;;;;;;;;;5001015;28;20030;-56
2023/06/16 12:25:14;;;;;;;8.13;3.60;;;;;;;;;;5012591;28;20038;-56
2023/06/16 12:27:49;;;;;;;7.18;3.85;;;;;;;;;;5013368;28;20044;-59
2023/06/16 12:30:15;;;;;;;6.22;3.60;;;;;;;;;;5005584;28;20038;-53
2023/06/16 12:32:41;;;;;;;5.10;3.50;;;;;;;;;;5012892;28;20030;-56
2023/06/16 12:35:07;;;;;;;6.40;3.38;;;;;;;;;;5012079;28;20037;-57
2023/06/16 12:37:32;;;;;;;5.47;3.30;;;;;;;;;;5012917;28;20382;-57
2023/06/16 12:40:07;;;;;;;4.47;3.70;;;;;;;;;;4995055;28;20038;-58
2023/06/16 12:42:33;;;;;;;8.20;4.13;;;;;;;;;;4996289;28;20049;-58
2023/06/16 12:45:02;;;;;;;4.45;3.50;;;;;;;;;;5012769;28;20034;-59
2023/06/16 12:47:29;;;;;;;6.18;3.35;;;;;;;;;;5025070;28;20033;-57
2023/06/16 12:49:56;;;;;;;5.85;3.70;;;;;;;;;;5013072;28;20033;-58
2023/06/16 12:52:23;;;;;;;4.35;3.35;;;;;;;;;;5011933;28;20497;-58
2023/06/16 12:54:50;;;;;;;4.25;3.38;;;;;;;;;;5013078;28;20066;-59
2023/06/16 12:57:15;;;;;;;4.93;3.25;;;;;;;;;;5022964;28;20534;-57
2023/06/16 12:59:41;;;;;;;5.90;3.42;;;;;;;;;;5010253;28;20117;-57
2023/06/16 13:02:06;;;;;;;5.15;3.80;;;;;;;;;;4994764;28;20471;-59
2023/06/16 13:04:32;;;;;;;5.95;3.60;;;;;;;;;;5008640;28;20030;-58
2023/06/16 13:06:57;;;;;;;5.43;3.95;;;;;;;;;;5031563;28;20513;-59
2023/06/16 13:09:23;;;;;;;12.95;3.85;;;;;;;;;;5016237;28;20045;-58
2023/06/16 13:11:55;;;;;;;7.03;3.63;;;;;;;;;;5012223;28;20420;-57
2023/06/16 13:14:21;;;;;;;5.53;3.30;;;;;;;;;;5006039;28;20172;-58
2023/06/16 13:16:46;;;;;;;4.57;3.40;;;;;;;;;;5024115;28;20475;-57
2023/06/16 13:19:12;;;;;;;5.13;3.47;;;;;;;;;;5017895;28;20029;-62
2023/06/16 13:21:37;;;;;;;5.35;3.50;;;;;;;;;;5001643;28;20113;-59
2023/06/16 13:24:03;;;;;;;7.95;4.47;;;;;;;;;;5009832;28;20045;-59
2023/06/16 13:26:29;;;;;;;6.95;3.60;;;;;;;;;;5011921;28;20026;-58
2023/06/16 13:28:54;;;;;;;6.57;3.90;;;;;;;;;;5014759;28;20088;-58
2023/06/16 13:31:20;;;;;;;5.00;3.60;;;;;;;;;;5011275;28;20056;-58
2023/06/16 13:33:46;;;;;;;5.78;3.42;;;;;;;;;;5012408;28;20029;-58
2023/06/16 13:36:16;;;;;;;5.65;3.65;;;;;;;;;;5011109;28;20348;-58
2023/06/16 13:38:43;;;;;;;7.35;3.75;;;;;;;;;;5011427;28;20053;-57
2023/06/16 13:41:09;;;;;;;7.13;3.90;;;;;;;;;;5018605;28;20052;-58
2023/06/16 13:43:35;;;;;;;6.93;3.55;;;;;;;;;;5024685;28;20057;-57
2023/06/16 13:46:00;;;;;;;9.65;3.80;;;;;;;;;;5009812;28;20459;-57
2023/06/16 13:48:25;;;;;;;9.07;3.55;;;;;;;;;;4996794;28;20037;-56
2023/06/16 13:50:51;;;;;;;6.97;3.70;;;;;;;;;;5006268;28;20030;-57
2023/06/16 13:53:17;;;;;;;5.88;3.60;;;;;;;;;;4997114;28;20359;-57
2023/06/16 13:55:42;;;;;;;7.20;3.58;;;;;;;;;;5005858;28;20038;-57
2023/06/16 13:58:07;;;;;;;6.07;3.70;;;;;;;;;;5000275;28;20120;-56
2023/06/16 14:00:33;;;;;;;7.55;3.70;;;;;;;;;;5008215;28;20038;-61
2023/06/16 14:02:58;;;;;;;6.57;3.63;;;;;;;;;;5022532;28;20039;-57
2023/06/16 14:05:24;;;;;;;5.65;3.90;;;;;;;;;;5012001;28;20038;-57
2023/06/16 14:07:50;;;;;;;7.80;3.75;;;;;;;;;;5013158;28;20045;-55
2023/06/16 14:10:16;;;;;;;5.35;3.45;;;;;;;;;;5010910;28;20363;-54
2023/06/16 14:12:44;;;;;;;6.25;3.83;;;;;;;;;;5011974;28;20505;-57
2023/06/16 14:15:13;;;;;;;6.00;3.65;;;;;;;;;;5004618;28;20050;-56
2023/06/16 14:17:41;;;;;;;6.28;3.83;;;;;;;;;;4996805;28;20030;-53
2023/06/16 14:20:08;;;;;;;5.25;3.50;;;;;;;;;;5009185;28;20119;-57
2023/06/16 14:22:37;;;;;;;6.35;3.80;;;;;;;;;;5024569;28;20045;-56
2023/06/16 14:25:03;;;;;;;6.07;3.97;;;;;;;;;;5011761;28;20033;-57
2023/06/16 14:27:30;;;;;;;5.85;3.60;;;;;;;;;;5010876;28;20041;-54
2023/06/16 14:29:55;;;;;;;8.25;3.80;;;;;;;;;;5013630;28;20236;-56
2023/06/16 14:32:21;;;;;;;6.38;3.60;;;;;;;;;;5014784;28;20524;-56
2023/06/16 14:34:46;;;;;;;5.05;3.83;;;;;;;;;;5008566;28;20039;-52
2023/06/16 14:37:11;;;;;;;5.53;3.75;;;;;;;;;;5016887;28;20030;-56
2023/06/16 14:39:37;;;;;;;7.82;3.75;;;;;;;;;;5015054;28;20029;-56
2023/06/16 14:42:02;;;;;;;7.45;3.85;;;;;;;;;;5009663;28;20434;-56